createdAt,value
2018-10-06T00:00:58.238Z,0.00
2018-10-06T00:01:58.248Z,0.00
2018-10-06T00:02:58.244Z,0.00
2018-10-06T00:03:58.244Z,0.00
2018-10-06T00:04:58.230Z,0.00
2018-10-06T00:05:58.350Z,0.00
2018-10-06T00:06:58.252Z,0.00
2018-10-06T00:07:58.286Z,0.00
2018-10-06T00:08:58.263Z,0.00
2018-10-06T00:09:58.258Z,0.00
2018-10-06T00:10:58.237Z,0.00
2018-10-06T00:11:58.269Z,0.00
2018-10-06T00:12:58.292Z,0.00
2018-10-06T00:13:58.227Z,0.00
2018-10-06T00:14:58.272Z,0.00
2018-10-06T00:15:58.245Z,0.00
2018-10-06T00:16:58.256Z,0.00
2018-10-06T00:17:58.258Z,0.00
2018-10-06T00:18:58.294Z,0.00
2018-10-06T00:19:58.284Z,0.00
2018-10-06T00:20:58.278Z,0.00
2018-10-06T00:21:58.261Z,0.00
2018-10-06T00:22:58.237Z,0.00
2018-10-06T00:23:58.263Z,0.00
2018-10-06T00:24:58.307Z,0.00
2018-10-06T00:25:58.300Z,0.00
2018-10-06T00:26:58.252Z,0.00
2018-10-06T00:27:58.290Z,0.00
2018-10-06T00:28:58.262Z,0.00
2018-10-06T00:29:58.252Z,0.00
2018-10-06T00:30:58.275Z,0.00
2018-10-06T00:31:58.275Z,0.00
2018-10-06T00:32:58.297Z,0.00
2018-10-06T00:33:58.281Z,0.00
2018-10-06T00:34:58.268Z,0.00
2018-10-06T00:35:58.266Z,0.00
2018-10-06T00:36:58.267Z,0.00
2018-10-06T00:37:58.279Z,0.00
2018-10-06T00:38:58.270Z,0.00
2018-10-06T00:39:58.292Z,0.00
2018-10-06T00:40:58.273Z,0.00
2018-10-06T00:41:58.280Z,0.00
2018-10-06T00:42:58.282Z,0.00
2018-10-06T00:43:58.285Z,0.00
2018-10-06T00:44:58.287Z,0.00
2018-10-06T00:45:58.312Z,0.00
2018-10-06T00:46:58.283Z,0.00
2018-10-06T00:47:58.283Z,0.00
2018-10-06T00:48:58.277Z,0.00
2018-10-06T00:49:58.276Z,0.00
2018-10-06T00:50:58.283Z,0.00
2018-10-06T00:51:58.326Z,0.00
2018-10-06T00:52:58.323Z,0.00
2018-10-06T00:53:58.315Z,0.00
2018-10-06T00:54:58.293Z,0.00
2018-10-06T00:55:58.297Z,0.00
2018-10-06T00:56:58.330Z,0.00
2018-10-06T00:57:58.329Z,0.00
2018-10-06T00:58:58.313Z,0.00
2018-10-06T00:59:58.326Z,0.00
2018-10-06T01:00:58.330Z,0.00
2018-10-06T01:01:58.309Z,0.00
2018-10-06T01:02:58.298Z,0.00
2018-10-06T01:03:58.361Z,0.00
2018-10-06T01:04:58.381Z,0.00
2018-10-06T01:05:58.318Z,0.00
2018-10-06T01:06:58.377Z,0.00
2018-10-06T01:07:58.330Z,0.00
2018-10-06T01:08:58.311Z,0.00
2018-10-06T01:09:58.320Z,0.00
2018-10-06T01:10:58.368Z,0.00
2018-10-06T01:11:58.352Z,0.00
2018-10-06T01:12:58.331Z,0.00
2018-10-06T01:13:58.319Z,0.00
2018-10-06T01:14:58.341Z,0.00
2018-10-06T01:15:58.355Z,0.00
2018-10-06T01:16:58.361Z,0.00
2018-10-06T01:17:58.346Z,0.00
2018-10-06T01:18:58.356Z,0.00
2018-10-06T01:19:58.336Z,0.00
2018-10-06T01:20:58.322Z,0.00
2018-10-06T01:21:58.331Z,0.00
2018-10-06T01:22:58.340Z,0.00
2018-10-06T01:23:58.332Z,0.00
2018-10-06T01:24:58.344Z,0.00
2018-10-06T01:25:58.336Z,0.00
2018-10-06T01:26:58.344Z,0.00
2018-10-06T01:27:58.338Z,0.00
2018-10-06T01:28:58.364Z,0.00
2018-10-06T01:29:58.382Z,0.00
2018-10-06T01:30:58.344Z,0.00
2018-10-06T01:31:58.363Z,0.00
2018-10-06T01:32:58.366Z,0.00
2018-10-06T01:33:58.342Z,0.00
2018-10-06T01:34:58.361Z,0.00
2018-10-06T01:35:58.364Z,0.00
2018-10-06T01:36:58.365Z,0.00
2018-10-06T01:37:58.349Z,0.00
2018-10-06T01:38:58.352Z,0.00
2018-10-06T01:39:58.384Z,0.00
2018-10-06T01:40:58.355Z,0.00
2018-10-06T01:41:58.352Z,0.00
2018-10-06T01:42:58.359Z,0.00
2018-10-06T01:43:58.355Z,0.00
2018-10-06T01:44:58.367Z,0.00
2018-10-06T01:45:58.356Z,0.00
2018-10-06T01:46:58.381Z,0.00
2018-10-06T01:47:58.379Z,0.00
2018-10-06T01:48:58.400Z,0.00
2018-10-06T01:49:58.418Z,0.00
2018-10-06T01:50:58.442Z,0.00
2018-10-06T01:51:58.415Z,0.00
2018-10-06T01:52:58.911Z,0.00
2018-10-06T01:53:58.399Z,0.00
2018-10-06T01:54:58.380Z,0.00
2018-10-06T01:55:58.419Z,0.00
2018-10-06T01:56:58.394Z,0.00
2018-10-06T01:57:58.374Z,0.00
2018-10-06T01:58:58.379Z,0.00
2018-10-06T01:59:58.376Z,0.00
2018-10-06T02:00:58.387Z,0.00
2018-10-06T02:01:58.387Z,0.00
2018-10-06T02:02:58.393Z,0.00
2018-10-06T02:03:58.409Z,0.00
2018-10-06T02:04:58.395Z,0.00
2018-10-06T02:05:58.394Z,0.00
2018-10-06T02:06:58.412Z,0.00
2018-10-06T02:07:58.431Z,0.00
2018-10-06T02:08:58.397Z,0.00
2018-10-06T02:09:58.465Z,0.00
2018-10-06T02:10:58.421Z,0.00
2018-10-06T02:11:58.410Z,0.00
2018-10-06T02:12:58.418Z,0.00
2018-10-06T02:13:58.404Z,0.00
2018-10-06T02:14:58.399Z,0.00
2018-10-06T02:15:58.394Z,0.00
2018-10-06T02:16:58.402Z,0.00
2018-10-06T02:17:58.403Z,0.00
2018-10-06T02:18:58.431Z,0.00
2018-10-06T02:19:58.427Z,0.00
2018-10-06T02:20:58.527Z,0.00
2018-10-06T02:21:58.422Z,0.00
2018-10-06T02:22:58.432Z,0.00
2018-10-06T02:23:58.406Z,0.00
2018-10-06T02:24:58.395Z,0.00
2018-10-06T02:25:58.424Z,0.00
2018-10-06T02:26:58.436Z,0.00
2018-10-06T02:27:58.428Z,0.00
2018-10-06T02:28:58.412Z,0.00
2018-10-06T02:29:58.457Z,0.00
2018-10-06T02:30:58.461Z,0.00
2018-10-06T02:31:58.421Z,0.00
2018-10-06T02:32:58.420Z,0.00
2018-10-06T02:33:58.442Z,0.00
2018-10-06T02:34:58.443Z,0.00
2018-10-06T02:35:58.451Z,0.00
2018-10-06T02:36:58.541Z,0.00
2018-10-06T02:37:58.422Z,0.00
2018-10-06T02:38:58.442Z,0.00
2018-10-06T02:39:58.463Z,0.00
2018-10-06T02:40:58.432Z,0.00
2018-10-06T02:41:58.425Z,0.00
2018-10-06T02:42:58.477Z,0.00
2018-10-06T02:43:58.477Z,0.00
2018-10-06T02:44:58.450Z,0.00
2018-10-06T02:45:58.466Z,0.00
2018-10-06T02:46:58.441Z,0.00
2018-10-06T02:47:58.437Z,0.00
2018-10-06T02:48:58.440Z,0.00
2018-10-06T02:49:58.442Z,0.00
2018-10-06T02:50:58.474Z,0.00
2018-10-06T02:51:58.460Z,0.00
2018-10-06T02:52:58.463Z,0.00
2018-10-06T02:53:58.515Z,0.00
2018-10-06T02:54:58.460Z,0.00
2018-10-06T02:55:58.489Z,0.00
2018-10-06T02:56:58.473Z,0.00
2018-10-06T02:57:58.481Z,0.00
2018-10-06T02:58:58.472Z,0.00
2018-10-06T02:59:58.470Z,0.00
2018-10-06T03:00:58.480Z,0.00
2018-10-06T03:01:58.477Z,0.00
2018-10-06T03:02:58.468Z,0.00
2018-10-06T03:03:58.532Z,0.00
2018-10-06T03:04:58.504Z,0.00
2018-10-06T03:05:58.461Z,0.00
2018-10-06T03:06:58.547Z,0.00
2018-10-06T03:07:58.463Z,0.00
2018-10-06T03:08:58.463Z,0.00
2018-10-06T03:09:58.550Z,0.00
2018-10-06T03:10:58.469Z,0.00
2018-10-06T03:11:58.465Z,0.00
2018-10-06T03:12:58.470Z,0.00
2018-10-06T03:13:58.463Z,0.00
2018-10-06T03:14:58.534Z,0.00
2018-10-06T03:15:58.534Z,0.00
2018-10-06T03:16:58.497Z,0.00
2018-10-06T03:17:58.479Z,0.00
2018-10-06T03:18:58.491Z,0.00
2018-10-06T03:19:58.491Z,0.00
2018-10-06T03:20:58.471Z,0.00
2018-10-06T03:21:58.488Z,0.00
2018-10-06T03:22:58.494Z,0.00
2018-10-06T03:23:58.471Z,0.00
2018-10-06T03:24:58.488Z,0.00
2018-10-06T03:25:58.485Z,0.00
2018-10-06T03:26:58.476Z,0.00
2018-10-06T03:27:58.486Z,0.00
2018-10-06T03:28:58.511Z,0.00
2018-10-06T03:29:58.496Z,0.00
2018-10-06T03:30:58.491Z,0.00
2018-10-06T03:31:58.520Z,0.00
2018-10-06T03:32:58.510Z,0.00
2018-10-06T03:33:58.501Z,0.00
2018-10-06T03:34:58.529Z,0.00
2018-10-06T03:35:58.518Z,0.00
2018-10-06T03:36:58.536Z,0.00
2018-10-06T03:37:58.522Z,0.00
2018-10-06T03:38:58.518Z,0.00
2018-10-06T03:39:58.531Z,0.00
2018-10-06T03:40:58.565Z,0.00
2018-10-06T03:41:58.505Z,0.00
2018-10-06T03:42:58.531Z,0.00
2018-10-06T03:43:58.547Z,0.00
2018-10-06T03:44:58.501Z,0.00
2018-10-06T03:45:58.497Z,0.00
2018-10-06T03:46:58.520Z,0.00
2018-10-06T03:47:58.539Z,0.00
2018-10-06T03:48:58.540Z,0.00
2018-10-06T03:49:58.555Z,0.00
2018-10-06T03:50:58.540Z,0.00
2018-10-06T03:51:58.544Z,0.00
2018-10-06T03:52:58.521Z,0.00
2018-10-06T03:53:58.542Z,0.00
2018-10-06T03:54:58.529Z,0.00
2018-10-06T03:55:58.643Z,0.00
2018-10-06T03:56:58.508Z,0.00
2018-10-06T03:57:58.605Z,0.00
2018-10-06T03:58:58.525Z,0.00
2018-10-06T03:59:58.520Z,0.00
2018-10-06T04:00:58.525Z,0.00
2018-10-06T04:01:58.587Z,0.00
2018-10-06T04:02:58.567Z,0.00
2018-10-06T04:03:58.534Z,0.00
2018-10-06T04:04:58.526Z,0.00
2018-10-06T04:05:58.572Z,0.00
2018-10-06T04:06:59.443Z,0.00
2018-10-06T04:07:58.576Z,0.00
2018-10-06T04:08:58.560Z,0.00
2018-10-06T04:09:58.582Z,0.00
2018-10-06T04:10:58.546Z,0.00
2018-10-06T04:11:58.540Z,0.00
2018-10-06T04:12:58.537Z,0.00
2018-10-06T04:13:58.536Z,0.00
2018-10-06T04:14:58.531Z,0.00
2018-10-06T04:15:58.537Z,0.00
2018-10-06T04:16:58.555Z,0.00
2018-10-06T04:17:58.585Z,0.00
2018-10-06T04:18:58.544Z,0.00
2018-10-06T04:19:58.576Z,0.00
2018-10-06T04:20:58.552Z,0.00
2018-10-06T04:21:58.578Z,0.00
2018-10-06T04:22:58.549Z,0.00
2018-10-06T04:23:58.563Z,0.00
2018-10-06T04:24:58.602Z,0.00
2018-10-06T04:25:58.543Z,0.00
2018-10-06T04:26:58.567Z,0.00
2018-10-06T04:27:58.553Z,0.00
2018-10-06T04:28:58.560Z,0.00
2018-10-06T04:29:58.594Z,0.00
2018-10-06T04:30:58.568Z,0.00
2018-10-06T04:31:58.589Z,0.00
2018-10-06T04:32:58.566Z,0.00
2018-10-06T04:33:58.545Z,0.00
2018-10-06T04:34:58.560Z,0.00
2018-10-06T04:35:58.566Z,0.00
2018-10-06T04:36:58.565Z,0.00
2018-10-06T04:37:58.571Z,0.00
2018-10-06T04:38:58.574Z,0.00
2018-10-06T04:39:58.584Z,0.00
2018-10-06T04:40:58.578Z,0.00
2018-10-06T04:41:58.572Z,0.00
2018-10-06T04:42:58.600Z,0.00
2018-10-06T04:43:58.553Z,0.00
2018-10-06T04:44:58.576Z,0.00
2018-10-06T04:45:58.585Z,0.00
2018-10-06T04:46:58.562Z,0.00
2018-10-06T04:47:58.572Z,0.00
2018-10-06T04:50:31.301Z,0.00
2018-10-06T04:51:30.833Z,0.00
2018-10-06T04:58:49.678Z,0.00
2018-10-06T04:59:49.611Z,0.00
2018-10-06T05:00:49.643Z,0.00
2018-10-06T05:01:49.656Z,0.00
2018-10-06T05:02:49.613Z,0.00
2018-10-06T05:03:49.605Z,0.00
2018-10-06T05:04:49.676Z,0.00
2018-10-06T05:05:49.615Z,0.00
2018-10-06T05:06:49.621Z,0.00
2018-10-06T05:07:49.649Z,4.00
2018-10-06T05:08:49.644Z,4.00
2018-10-06T05:09:49.629Z,0.00
2018-10-06T05:10:49.629Z,0.00
2018-10-06T05:11:49.659Z,4.00
2018-10-06T05:12:49.625Z,4.00
2018-10-06T05:13:49.672Z,4.00
2018-10-06T05:14:49.624Z,4.00
2018-10-06T05:15:49.629Z,8.00
2018-10-06T05:16:49.618Z,8.00
2018-10-06T05:17:49.643Z,8.00
2018-10-06T05:18:49.643Z,8.00
2018-10-06T05:19:49.659Z,12.00
2018-10-06T05:20:49.648Z,12.00
2018-10-06T05:21:49.654Z,20.00
2018-10-06T05:22:49.671Z,20.00
2018-10-06T05:23:49.636Z,24.00
2018-10-06T05:24:49.663Z,28.00
2018-10-06T05:25:49.632Z,32.00
2018-10-06T05:26:49.625Z,36.00
2018-10-06T05:27:49.655Z,40.00
2018-10-06T05:28:49.715Z,48.00
2018-10-06T05:29:49.625Z,52.00
2018-10-06T05:30:49.650Z,60.00
2018-10-06T05:31:49.691Z,68.00
2018-10-06T05:32:49.651Z,76.00
2018-10-06T05:33:49.687Z,84.00
2018-10-06T05:34:49.690Z,92.00
2018-10-06T05:35:49.668Z,104.00
2018-10-06T05:36:49.693Z,116.00
2018-10-06T05:37:49.658Z,128.00
2018-10-06T05:38:49.658Z,140.00
2018-10-06T05:39:49.676Z,152.00
2018-10-06T05:40:49.673Z,168.00
2018-10-06T05:41:49.691Z,184.00
2018-10-06T05:42:49.695Z,204.00
2018-10-06T05:43:49.665Z,220.00
2018-10-06T05:44:49.696Z,240.00
2018-10-06T05:45:49.665Z,256.00
2018-10-06T05:46:49.677Z,276.00
2018-10-06T05:47:49.666Z,296.00
2018-10-06T05:48:49.818Z,316.00
2018-10-06T05:49:49.660Z,340.00
2018-10-06T05:50:49.657Z,364.00
2018-10-06T05:51:49.666Z,388.00
2018-10-06T05:52:49.684Z,412.00
2018-10-06T05:53:49.669Z,436.00
2018-10-06T05:54:49.664Z,452.00
2018-10-06T05:55:49.665Z,484.00
2018-10-06T05:56:49.680Z,508.00
2018-10-06T05:57:49.692Z,532.00
2018-10-06T05:58:49.663Z,548.00
2018-10-06T05:59:49.674Z,560.00
2018-10-06T06:00:49.676Z,588.00
2018-10-06T06:01:49.695Z,616.00
2018-10-06T06:02:49.666Z,640.00
2018-10-06T06:03:49.693Z,668.00
2018-10-06T06:04:49.706Z,696.00
2018-10-06T06:05:49.673Z,728.00
2018-10-06T06:06:49.670Z,752.00
2018-10-06T06:07:49.677Z,772.00
2018-10-06T06:08:49.695Z,792.00
2018-10-06T06:09:49.701Z,816.00
2018-10-06T06:10:49.674Z,844.00
2018-10-06T06:11:49.682Z,872.00
2018-10-06T06:12:49.687Z,880.00
2018-10-06T06:13:49.710Z,904.00
2018-10-06T06:14:49.725Z,924.00
2018-10-06T06:15:49.718Z,968.00
2018-10-06T06:16:49.697Z,1000.00
2018-10-06T06:17:49.717Z,1016.00
2018-10-06T06:18:49.690Z,1008.00
2018-10-06T06:19:49.695Z,1028.00
2018-10-06T06:20:49.690Z,1036.00
2018-10-06T06:21:49.684Z,1052.00
2018-10-06T06:22:49.743Z,1076.00
2018-10-06T06:23:49.717Z,1116.00
2018-10-06T06:24:49.680Z,1144.00
2018-10-06T06:25:49.709Z,1148.00
2018-10-06T06:26:49.694Z,1188.00
2018-10-06T06:27:49.680Z,1204.00
2018-10-06T06:28:49.719Z,1228.00
2018-10-06T06:29:49.762Z,1216.00
2018-10-06T06:30:49.758Z,1288.00
2018-10-06T06:31:49.690Z,1308.00
2018-10-06T06:32:49.727Z,1300.00
2018-10-06T06:33:49.740Z,1288.00
2018-10-06T06:34:49.726Z,1364.00
2018-10-06T06:35:49.716Z,1416.00
2018-10-06T06:36:49.707Z,1432.00
2018-10-06T06:37:49.708Z,1440.00
2018-10-06T06:38:49.766Z,1476.00
2018-10-06T06:39:49.697Z,1480.00
2018-10-06T06:40:49.738Z,1496.00
2018-10-06T06:41:49.700Z,1516.00
2018-10-06T06:42:49.717Z,1520.00
2018-10-06T06:43:49.850Z,1548.00
2018-10-06T06:44:49.719Z,1576.00
2018-10-06T06:45:49.722Z,1600.00
2018-10-06T06:46:49.713Z,1632.00
2018-10-06T06:47:49.709Z,1648.00
2018-10-06T06:48:49.747Z,1620.00
2018-10-06T06:49:49.747Z,1624.00
2018-10-06T06:50:49.763Z,1660.00
2018-10-06T06:51:50.430Z,1664.00
2018-10-06T06:52:49.769Z,1680.00
2018-10-06T06:53:49.724Z,1704.00
2018-10-06T06:54:49.781Z,1740.00
2018-10-06T06:55:49.720Z,1784.00
2018-10-06T06:56:49.769Z,1816.00
2018-10-06T06:57:49.760Z,1848.00
2018-10-06T06:58:49.840Z,1896.00
2018-10-06T06:59:49.768Z,1952.00
2018-10-06T07:00:49.759Z,2020.00
2018-10-06T07:01:49.749Z,2080.00
2018-10-06T07:02:49.773Z,2096.00
2018-10-06T07:03:49.742Z,2124.00
2018-10-06T07:04:49.764Z,2188.00
2018-10-06T07:05:49.783Z,2224.00
2018-10-06T07:06:49.765Z,2348.00
2018-10-06T07:07:49.791Z,3264.00
2018-10-06T07:08:49.791Z,3804.00
2018-10-06T07:09:49.783Z,3456.00
2018-10-06T07:10:49.802Z,4220.00
2018-10-06T07:11:49.789Z,4572.00
2018-10-06T07:12:49.753Z,5444.00
2018-10-06T07:13:49.769Z,6028.00
2018-10-06T07:14:49.749Z,6168.00
2018-10-06T07:15:49.752Z,6276.00
2018-10-06T07:16:49.776Z,6376.00
2018-10-06T07:17:49.792Z,6492.00
2018-10-06T07:18:49.767Z,6588.00
2018-10-06T07:19:49.765Z,6656.00
2018-10-06T07:20:49.774Z,6636.00
2018-10-06T07:21:49.776Z,6768.00
2018-10-06T07:22:49.763Z,6884.00
2018-10-06T07:23:49.793Z,6864.00
2018-10-06T07:24:49.828Z,6920.00
2018-10-06T07:25:49.766Z,7020.00
2018-10-06T07:26:49.777Z,7080.00
2018-10-06T07:27:49.807Z,7144.00
2018-10-06T07:28:49.765Z,7252.00
2018-10-06T07:29:49.791Z,7340.00
2018-10-06T07:30:49.778Z,7440.00
2018-10-06T07:31:49.802Z,7564.00
2018-10-06T07:32:49.794Z,7676.00
2018-10-06T07:33:49.786Z,7732.00
2018-10-06T07:34:49.784Z,7792.00
2018-10-06T07:35:49.835Z,7872.00
2018-10-06T07:36:49.815Z,7952.00
2018-10-06T07:37:49.842Z,8004.00
2018-10-06T07:38:49.837Z,8080.00
2018-10-06T07:39:49.826Z,8132.00
2018-10-06T07:40:49.831Z,8188.00
2018-10-06T07:41:49.844Z,8228.00
2018-10-06T07:42:49.823Z,8296.00
2018-10-06T07:43:49.858Z,8360.00
2018-10-06T07:44:49.845Z,8392.00
2018-10-06T07:45:49.897Z,8444.00
2018-10-06T07:46:49.848Z,8512.00
2018-10-06T07:47:49.879Z,8556.00
2018-10-06T07:48:49.867Z,8616.00
2018-10-06T07:49:49.839Z,8664.00
2018-10-06T07:50:49.857Z,8720.00
2018-10-06T07:51:49.845Z,8760.00
2018-10-06T07:52:49.883Z,8816.00
2018-10-06T07:53:49.892Z,8876.00
2018-10-06T07:54:49.876Z,8952.00
2018-10-06T07:55:49.892Z,9000.00
2018-10-06T07:56:49.914Z,9056.00
2018-10-06T07:57:49.919Z,9092.00
2018-10-06T07:58:49.917Z,9152.00
2018-10-06T07:59:49.883Z,9216.00
2018-10-06T08:00:49.916Z,9292.00
2018-10-06T08:01:49.912Z,9340.00
2018-10-06T08:02:49.914Z,9384.00
2018-10-06T08:03:49.976Z,9448.00
2018-10-06T08:04:49.941Z,9532.00
2018-10-06T08:05:49.929Z,9624.00
2018-10-06T08:06:49.944Z,9712.00
2018-10-06T08:07:49.967Z,9820.00
2018-10-06T08:08:49.955Z,9876.00
2018-10-06T08:09:49.968Z,9924.00
2018-10-06T08:10:49.958Z,10016.00
2018-10-06T08:11:49.997Z,10072.00
2018-10-06T08:12:50.019Z,10108.00
2018-10-06T08:13:49.968Z,10232.00
2018-10-06T08:14:50.015Z,10300.00
2018-10-06T08:15:49.987Z,10024.00
2018-10-06T08:16:50.035Z,10476.00
2018-10-06T08:17:50.012Z,10524.00
2018-10-06T08:18:50.026Z,10548.00
2018-10-06T08:19:50.013Z,10680.00
2018-10-06T08:20:50.043Z,10788.00
2018-10-06T08:21:50.049Z,10844.00
2018-10-06T08:22:50.066Z,10896.00
2018-10-06T08:23:50.047Z,10952.00
2018-10-06T08:24:50.087Z,11052.00
2018-10-06T08:25:50.086Z,11124.00
2018-10-06T08:26:50.098Z,11256.00
2018-10-06T08:27:50.113Z,11332.00
2018-10-06T08:28:50.091Z,11456.00
2018-10-06T08:29:50.077Z,11588.00
2018-10-06T08:30:50.164Z,11688.00
2018-10-06T08:31:50.137Z,11792.00
2018-10-06T08:32:50.132Z,11872.00
2018-10-06T08:33:50.147Z,11972.00
2018-10-06T08:34:50.152Z,12004.00
2018-10-06T08:35:50.170Z,12084.00
2018-10-06T08:36:50.163Z,12260.00
2018-10-06T08:37:50.171Z,12396.00
2018-10-06T08:38:50.171Z,12496.00
2018-10-06T08:39:50.236Z,12588.00
2018-10-06T08:40:50.232Z,12712.00
2018-10-06T08:41:50.220Z,12784.00
2018-10-06T08:42:50.307Z,12864.00
2018-10-06T08:43:50.206Z,12928.00
2018-10-06T08:44:50.219Z,12984.00
2018-10-06T08:45:50.238Z,13116.00
2018-10-06T08:46:50.252Z,13268.00
2018-10-06T08:47:50.266Z,13324.00
2018-10-06T08:48:50.284Z,13480.00
2018-10-06T08:49:50.309Z,13608.00
2018-10-06T08:50:50.310Z,13736.00
2018-10-06T08:51:50.316Z,13840.00
2018-10-06T08:52:50.309Z,13872.00
2018-10-06T08:53:50.293Z,13984.00
2018-10-06T08:54:50.323Z,14068.00
2018-10-06T08:55:50.341Z,14168.00
2018-10-06T08:56:50.360Z,14208.00
2018-10-06T08:57:50.329Z,14416.00
2018-10-06T08:58:50.371Z,14532.00
2018-10-06T08:59:50.365Z,14840.00
2018-10-06T09:00:50.432Z,15152.00
2018-10-06T09:01:50.400Z,15440.00
2018-10-06T09:02:50.382Z,15936.00
2018-10-06T09:03:50.405Z,16352.00
2018-10-06T09:04:50.444Z,16736.00
2018-10-06T09:05:50.460Z,17184.00
2018-10-06T09:06:50.483Z,17952.00
2018-10-06T09:07:50.483Z,18752.00
2018-10-06T09:08:50.457Z,19968.00
2018-10-06T09:09:50.466Z,21504.00
2018-10-06T09:10:50.512Z,22816.00
2018-10-06T09:11:50.531Z,23936.00
2018-10-06T09:12:50.541Z,25344.00
2018-10-06T09:13:50.520Z,27328.00
2018-10-06T09:14:50.516Z,30368.00
2018-10-06T09:15:50.565Z,34720.00
2018-10-06T09:16:50.559Z,41856.00
2018-10-06T09:17:50.640Z,49408.00
2018-10-06T09:18:50.563Z,57536.00
2018-10-06T09:19:50.590Z,66496.00
2018-10-06T09:20:50.631Z,80704.00
2018-10-06T09:21:50.664Z,97888.00
2018-10-06T09:22:50.638Z,111712.00
2018-10-06T09:23:50.668Z,115424.00
2018-10-06T09:24:50.626Z,105280.00
2018-10-06T09:25:50.634Z,88800.00
2018-10-06T09:26:50.688Z,73280.00
2018-10-06T09:27:50.744Z,61472.00
2018-10-06T09:28:50.722Z,58432.00
2018-10-06T09:29:50.691Z,56256.00
2018-10-06T09:30:50.719Z,54112.00
2018-10-06T09:31:50.733Z,50656.00
2018-10-06T09:32:50.757Z,47296.00
2018-10-06T09:33:50.740Z,43872.00
2018-10-06T09:34:50.843Z,42208.00
2018-10-06T09:35:50.790Z,41088.00
2018-10-06T09:36:50.791Z,40096.00
2018-10-06T09:37:50.789Z,38496.00
2018-10-06T09:38:50.799Z,35776.00
2018-10-06T09:39:50.815Z,34752.00
2018-10-06T09:40:50.824Z,34400.00
2018-10-06T09:41:50.910Z,33568.00
2018-10-06T09:42:50.987Z,32672.00
2018-10-06T09:43:50.863Z,32224.00
2018-10-06T09:44:50.903Z,32064.00
2018-10-06T09:45:50.952Z,31520.00
2018-10-06T09:46:50.939Z,30912.00
2018-10-06T09:47:50.935Z,30400.00
2018-10-06T09:48:50.920Z,29984.00
2018-10-06T09:49:50.949Z,30240.00
2018-10-06T09:50:50.989Z,31136.00
2018-10-06T09:51:50.985Z,31744.00
2018-10-06T09:52:50.986Z,32192.00
2018-10-06T09:53:51.071Z,31392.00
2018-10-06T09:54:51.055Z,30112.00
2018-10-06T09:55:51.040Z,29760.00
2018-10-06T09:56:51.038Z,30272.00
2018-10-06T09:57:51.039Z,31072.00
2018-10-06T09:58:51.093Z,31616.00
2018-10-06T09:59:51.089Z,31392.00
2018-10-06T10:00:51.122Z,31072.00
2018-10-06T10:01:51.123Z,31168.00
2018-10-06T10:03:51.123Z,30912.00
2018-10-06T10:04:51.183Z,31200.00
2018-10-06T10:05:51.336Z,32416.00
2018-10-06T10:06:51.163Z,33472.00
2018-10-06T10:07:51.180Z,34016.00
2018-10-06T10:08:51.173Z,33568.00
2018-10-06T10:09:51.223Z,33408.00
2018-10-06T10:10:51.246Z,33440.00
2018-10-06T10:11:51.257Z,34176.00
2018-10-06T10:12:51.266Z,34848.00
2018-10-06T10:13:51.275Z,35808.00
2018-10-06T10:14:51.337Z,35808.00
2018-10-06T10:15:51.302Z,35776.00
2018-10-06T10:16:51.362Z,35136.00
2018-10-06T10:17:51.470Z,33952.00
2018-10-06T10:18:51.340Z,32960.00
2018-10-06T10:19:51.347Z,31968.00
2018-10-06T10:20:51.384Z,32928.00
2018-10-06T10:21:51.381Z,33472.00
2018-10-06T10:22:51.403Z,34752.00
2018-10-06T10:23:51.425Z,34560.00
2018-10-06T10:24:51.433Z,34240.00
2018-10-06T10:25:51.424Z,30144.00
2018-10-06T10:26:51.444Z,36032.00
2018-10-06T10:27:51.443Z,35904.00
2018-10-06T10:28:51.560Z,36768.00
2018-10-06T10:29:51.474Z,36192.00
2018-10-06T10:33:05.576Z,36544.00
2018-10-06T10:34:27.238Z,37536.00
2018-10-06T10:34:51.600Z,40128.00
2018-10-06T10:35:51.614Z,43328.00
2018-10-06T10:36:51.606Z,45632.00
2018-10-06T10:37:51.598Z,45856.00
2018-10-06T10:38:51.743Z,42080.00
2018-10-06T10:39:51.658Z,39296.00
2018-10-06T10:40:51.657Z,39712.00
2018-10-06T10:41:51.668Z,40864.00
2018-10-06T10:42:51.681Z,39200.00
2018-10-06T10:43:51.740Z,36672.00
2018-10-06T10:44:51.722Z,36096.00
2018-10-06T10:45:51.711Z,38848.00
2018-10-06T10:46:51.742Z,43936.00
2018-10-06T10:47:51.750Z,47200.00
2018-10-06T10:48:51.797Z,44320.00
2018-10-06T10:49:51.793Z,44672.00
2018-10-06T10:50:51.853Z,48896.00
2018-10-06T10:51:51.814Z,50368.00
2018-10-06T10:52:51.821Z,46112.00
2018-10-06T10:53:51.880Z,41632.00
2018-10-06T10:54:51.895Z,36352.00
2018-10-06T10:55:51.882Z,48224.00
2018-10-06T10:56:51.881Z,47104.00
2018-10-06T10:57:51.997Z,46720.00
2018-10-06T10:58:51.944Z,47840.00
2018-10-06T10:59:52.124Z,48672.00
2018-10-06T11:00:51.976Z,50304.00
2018-10-06T11:01:51.971Z,52608.00
2018-10-06T11:02:51.984Z,50784.00
2018-10-06T11:03:52.029Z,49760.00
2018-10-06T11:04:52.102Z,49056.00
2018-10-06T11:05:52.183Z,46496.00
2018-10-06T11:06:52.053Z,45344.00
2018-10-06T11:07:52.070Z,39968.00
2018-10-06T11:08:52.076Z,48288.00
2018-10-06T11:09:52.092Z,45888.00
2018-10-06T11:10:52.095Z,44256.00
2018-10-06T11:11:52.153Z,43456.00
2018-10-06T11:12:52.142Z,42208.00
2018-10-06T11:13:52.118Z,40608.00
2018-10-06T11:14:52.179Z,41792.00
2018-10-06T11:15:52.173Z,38944.00
2018-10-06T11:16:52.165Z,41856.00
2018-10-06T11:17:52.204Z,42688.00
2018-10-06T11:18:52.222Z,39712.00
2018-10-06T11:19:52.254Z,35456.00
2018-10-06T11:20:52.285Z,38112.00
2018-10-06T11:21:52.274Z,38272.00
2018-10-06T11:22:52.295Z,38560.00
2018-10-06T11:23:52.292Z,36864.00
2018-10-06T11:24:52.420Z,36288.00
2018-10-06T11:25:52.309Z,37280.00
2018-10-06T11:26:52.419Z,36896.00
2018-10-06T11:27:52.332Z,36000.00
2018-10-06T11:28:52.341Z,30880.00
2018-10-06T11:29:52.406Z,17120.00
2018-10-06T11:30:52.437Z,6828.00
2018-10-06T11:31:52.434Z,5668.00
2018-10-06T11:32:52.441Z,5184.00
2018-10-06T11:33:52.448Z,4992.00
2018-10-06T11:34:52.415Z,4832.00
2018-10-06T11:35:52.498Z,4564.00
2018-10-06T11:36:52.475Z,4424.00
2018-10-06T11:37:52.575Z,4296.00
2018-10-06T11:38:52.534Z,4176.00
2018-10-06T11:39:52.511Z,4076.00
2018-10-06T11:40:52.504Z,4012.00
2018-10-06T11:41:52.526Z,3976.00
2018-10-06T11:42:52.545Z,3976.00
2018-10-06T11:43:52.572Z,3988.00
2018-10-06T11:44:52.552Z,3980.00
2018-10-06T11:45:52.562Z,3936.00
2018-10-06T11:46:52.578Z,3848.00
2018-10-06T11:47:52.664Z,3860.00
2018-10-06T11:48:52.588Z,3892.00
2018-10-06T11:49:52.603Z,3908.00
2018-10-06T11:50:52.621Z,3924.00
2018-10-06T11:51:52.649Z,3764.00
2018-10-06T11:52:52.615Z,3840.00
2018-10-06T11:53:52.641Z,3828.00
2018-10-06T11:54:52.628Z,3728.00
2018-10-06T11:55:52.663Z,3768.00
2018-10-06T11:56:52.655Z,3748.00
2018-10-06T11:57:52.716Z,3748.00
2018-10-06T11:58:52.720Z,3668.00
2018-10-06T11:59:52.753Z,3656.00
2018-10-06T12:00:52.694Z,3708.00
2018-10-06T12:01:52.678Z,3736.00
2018-10-06T12:02:52.695Z,3708.00
2018-10-06T12:03:52.734Z,3724.00
2018-10-06T12:04:52.747Z,3728.00
2018-10-06T12:05:52.794Z,3764.00
2018-10-06T12:06:52.718Z,3704.00
2018-10-06T12:07:52.722Z,3620.00
2018-10-06T12:08:52.739Z,3600.00
2018-10-06T12:09:52.788Z,3532.00
2018-10-06T12:10:52.800Z,3472.00
2018-10-06T12:11:52.761Z,3396.00
2018-10-06T12:12:52.758Z,3324.00
2018-10-06T12:13:52.772Z,3264.00
2018-10-06T12:14:52.811Z,3196.00
2018-10-06T12:15:52.807Z,3156.00
2018-10-06T12:16:52.830Z,3116.00
2018-10-06T12:17:52.792Z,3076.00
2018-10-06T12:18:52.813Z,3044.00
2018-10-06T12:19:52.811Z,3036.00
2018-10-06T12:20:52.818Z,3020.00
2018-10-06T12:21:52.826Z,2980.00
2018-10-06T12:22:52.851Z,2908.00
2018-10-06T12:23:52.837Z,2880.00
2018-10-06T12:24:52.871Z,2872.00
2018-10-06T12:25:52.881Z,2880.00
2018-10-06T12:26:52.889Z,2876.00
2018-10-06T12:27:52.873Z,2900.00
2018-10-06T12:28:52.935Z,2880.00
2018-10-06T12:29:52.903Z,2896.00
2018-10-06T12:30:52.890Z,2900.00
2018-10-06T12:31:52.906Z,2892.00
2018-10-06T12:32:52.919Z,2864.00
2018-10-06T12:33:52.898Z,2868.00
2018-10-06T12:34:53.176Z,2852.00
2018-10-06T12:35:52.898Z,2836.00
2018-10-06T12:36:52.938Z,2832.00
2018-10-06T12:37:52.906Z,2852.00
2018-10-06T12:38:52.946Z,2872.00
2018-10-06T12:39:52.931Z,2844.00
2018-10-06T12:40:54.708Z,2824.00
2018-10-06T12:41:52.979Z,2816.00